Time;durP1;ratioP1;P1;durP2;ratioP2;P2;SDS_P1;SDS_P2;PMS_P1;PMS_P2;Temp;Humidity;BMP_temperature;BMP_pressure;BME280_temperature;BME280_humidity;BME280_pressure;Samples;Min_cycle;Max_cycle;Signal;HPM_P1;HPM_P2
2023/03/13 00:00:09;;;;;;;;;;;12.40;99.90;12.70;99469.00;;;;340173;28;91907;-88
2023/03/13 00:00:21;;;;;;;;;;;12.40;99.90;12.70;99472.00;;;;341934;28;82444;-89
2023/03/13 00:00:33;;;;;;;;;;;12.40;99.90;12.80;99469.00;;;;344247;28;91559;-89
2023/03/13 00:00:44;;;;;;;;;;;12.40;99.90;12.70;99472.00;;;;343219;28;83310;-89
2023/03/13 00:00:57;;;;;;;;;;;12.40;99.90;12.70;99476.00;;;;340104;28;92601;-89
2023/03/13 00:01:16;;;;;;;;;;;12.40;99.90;12.70;99469.00;;;;340644;28;83421;-89
2023/03/13 00:01:33;;;;;;;;;;;12.40;99.90;12.60;99475.00;;;;340118;28;91838;-89
2023/03/13 00:01:46;;;;;;;;;;;12.40;99.90;12.60;99468.00;;;;341894;28;83443;-88
2023/03/13 00:01:58;;;;;;;;;;;12.40;99.90;12.60;99469.00;;;;341502;28;91343;-88
2023/03/13 00:02:09;;;;;;;;;;;12.40;99.90;12.60;99473.00;;;;344645;28;82535;-89
2023/03/13 00:02:21;;;;;;;;;;;12.40;99.90;12.50;99474.00;;;;340153;28;90453;-89
2023/03/13 00:02:33;;;;;;;;;;;12.40;99.90;12.50;99473.00;;;;340558;28;83225;-89
2023/03/13 00:02:45;;;;;;;;;;;12.40;99.90;12.50;99478.00;;;;342432;28;91192;-88
2023/03/13 00:02:57;;;;;;;;;;;12.40;99.90;12.50;99466.00;;;;341893;28;82518;-89
2023/03/13 00:03:08;;;;;;;;;;;12.40;99.90;12.60;99471.00;;;;341532;28;91334;-89
2023/03/13 00:03:20;;;;;;;;;;;12.40;99.90;12.60;99471.00;;;;339262;28;83437;-89
2023/03/13 00:03:32;;;;;;;;;;;12.40;99.90;12.60;99473.00;;;;342846;28;90942;-89
2023/03/13 00:03:44;;;;;;;;;;;12.40;99.90;12.60;99471.00;;;;341899;28;83433;-88
2023/03/13 00:03:56;;;;;;;;;;;12.40;99.90;12.60;99470.00;;;;341581;28;90198;-89
2023/03/13 00:04:08;;;;;;;;;;;12.40;99.90;12.60;99471.00;;;;340605;28;83449;-89
2023/03/13 00:04:19;;;;;;;;;;;12.40;99.90;12.70;99477.00;;;;344236;28;91503;-89
2023/03/13 00:04:31;;;;;;;;;;;12.40;99.90;12.70;99476.00;;;;343319;28;83462;-88
2023/03/13 00:04:43;;;;;;;;;;;12.40;99.90;12.70;99478.00;;;;341611;28;88536;-89
2023/03/13 00:04:55;;;;;;;;;;;12.40;99.90;12.70;99472.00;;;;340011;28;83556;-89
2023/03/13 00:05:07;;;;;;;;;;;12.40;99.90;12.80;99468.00;;;;338907;28;89983;-88
2023/03/13 00:05:19;;;;;;;;;;;12.40;99.90;12.70;99480.00;;;;344537;28;83514;-89
2023/03/13 00:05:33;;;;;;;;;;;12.40;99.90;12.70;99471.00;;;;343009;28;91429;-89
2023/03/13 00:05:45;;;;;;;;;;;12.40;99.90;12.80;99471.00;;;;341989;28;82891;-89
2023/03/13 00:05:57;;;;;;;;;;;12.40;99.90;12.80;99481.00;;;;342866;28;91558;-89
2023/03/13 00:06:09;;;;;;;;;;;12.40;99.90;12.80;99469.00;;;;340498;28;82611;-89
2023/03/13 00:06:25;;;;;;;;;;;12.40;99.90;12.70;99471.00;;;;342917;28;90747;-89
2023/03/13 00:06:39;;;;;;;;;;;12.40;99.90;12.80;99477.00;;;;343261;28;83419;-89
2023/03/13 00:06:50;;;;;;;;;;;12.40;99.90;12.90;99472.00;;;;340138;28;90359;-89
2023/03/13 00:07:02;;;;;;;;;;;12.40;99.90;12.90;99468.00;;;;339228;28;83327;-89
2023/03/13 00:07:14;;;;;;;;;;;12.40;99.90;12.90;99466.00;;;;339802;28;93071;-89
2023/03/13 00:07:26;;;;;;;;;;;12.40;99.90;12.80;99467.00;;;;340415;28;82625;-89
2023/03/13 00:07:38;;;;;;;;;;;12.40;99.90;12.80;99475.00;;;;341532;28;91401;-89
2023/03/13 00:07:50;;;;;;;;;;;12.50;99.90;12.80;99465.00;;;;341909;28;82491;-89
2023/03/13 00:08:02;;;;;;;;;;;12.40;99.90;12.70;99467.00;;;;344176;28;91277;-88
2023/03/13 00:08:14;;;;;;;;;;;12.40;99.90;12.90;99465.00;;;;340638;28;82534;-89
2023/03/13 00:08:29;;;;;;;;;;;12.40;99.90;12.90;99470.00;;;;340108;28;90270;-89
2023/03/13 00:08:41;;;;;;;;;;;12.50;99.90;12.90;99468.00;;;;340535;28;83488;-89
2023/03/13 00:08:53;;;;;;;;;;;12.50;99.90;12.80;99472.00;;;;341476;28;90092;-88
2023/03/13 00:09:06;;;;;;;;;;;12.50;99.90;12.90;99469.00;;;;339275;28;82272;-89
2023/03/13 00:09:18;;;;;;;;;;;12.50;99.90;12.80;99469.00;;;;340088;28;92493;-89
2023/03/13 00:09:30;;;;;;;;;;;12.50;99.90;12.90;99464.00;;;;340481;28;83590;-89
2023/03/13 00:09:42;;;;;;;;;;;12.50;99.90;12.90;99466.00;;;;338860;28;90456;-89
2023/03/13 00:09:53;;;;;;;;;;;12.50;99.90;12.90;99467.00;;;;339242;28;83431;-89
2023/03/13 00:10:06;;;;;;;;;;;12.50;99.90;12.80;99465.00;;;;337417;28;91415;-89
2023/03/13 00:10:17;;;;;;;;;;;12.50;99.90;12.70;99464.00;;;;337911;28;83441;-89
2023/03/13 00:10:29;;;;;;;;;;;12.50;99.90;12.70;99464.00;;;;340154;28;92117;-88
2023/03/13 00:10:42;;;;;;;;;;;12.50;99.90;12.70;99468.00;;;;343056;28;83488;-88
2023/03/13 00:10:53;;;;;;;;;;;12.50;99.90;12.70;99461.00;;;;342739;28;91915;-89
2023/03/13 00:11:07;;;;;;;;;;;12.50;99.90;12.70;99464.00;;;;343200;28;83864;-89
2023/03/13 00:11:19;;;;;;;;;;;12.50;99.90;12.60;99467.00;;;;338955;28;88933;-89
2023/03/13 00:11:31;;;;;;;;;;;12.50;99.90;12.60;99460.00;;;;342005;28;82543;-89
2023/03/13 00:11:44;;;;;;;;;;;12.50;99.90;12.60;99462.00;;;;341455;28;91633;-89
2023/03/13 00:11:56;;;;;;;;;;;12.50;99.90;12.70;99465.00;;;;339212;28;83560;-89
2023/03/13 00:12:08;;;;;;;;;;;12.50;99.90;12.70;99460.00;;;;341479;28;90284;-88
2023/03/13 00:12:20;;;;;;;;;;;12.50;99.90;12.70;99462.00;;;;343321;28;83363;-88
2023/03/13 00:12:31;;;;;;;;;;;12.50;99.90;12.70;99461.00;;;;340225;28;90482;-89
2023/03/13 00:12:43;;;;;;;;;;;12.50;99.90;12.70;99465.00;;;;341910;28;83484;-89
2023/03/13 00:12:55;;;;;;;;;;;12.50;99.90;12.70;99468.00;;;;341485;28;91706;-89
2023/03/13 00:13:07;;;;;;;;;;;12.50;99.90;12.70;99467.00;;;;340571;28;83452;-89
2023/03/13 00:13:19;;;;;;;;;;;12.50;99.90;12.60;99463.00;;;;342762;28;92299;-89
2023/03/13 00:13:30;;;;;;;;;;;12.50;99.90;12.60;99462.00;;;;341906;28;83516;-89
2023/03/13 00:13:42;;;;;;;;;;;12.50;99.90;12.60;99463.00;;;;342812;28;91641;-89
2023/03/13 00:13:58;;;;;;;;;;;12.50;99.90;12.60;99462.00;;;;340556;28;82540;-89
2023/03/13 00:14:09;;;;;;;;;;;12.50;99.90;12.50;99466.00;;;;340215;28;89251;-89
2023/03/13 00:14:21;;;;;;;;;;;12.50;99.90;12.60;99466.00;;;;341979;28;83390;-89
2023/03/13 00:14:33;;;;;;;;;;;12.40;99.90;12.60;99462.00;;;;342853;28;91452;-89
2023/03/13 00:14:45;;;;;;;;;;;12.40;99.90;12.50;99465.00;;;;341793;28;83589;-89
2023/03/13 00:14:58;;;;;;;;;;;12.50;99.90;12.60;99470.00;;;;344148;28;89066;-89
2023/03/13 00:15:10;;;;;;;;;;;12.40;99.90;12.60;99466.00;;;;343421;28;82409;-89
2023/03/13 00:15:22;;;;;;;;;;;12.40;99.90;12.70;99470.00;;;;341395;28;93264;-89
2023/03/13 00:15:33;;;;;;;;;;;12.40;99.90;12.80;99461.00;;;;341835;28;83433;-89
2023/03/13 00:15:45;;;;;;;;;;;12.40;99.90;12.90;99463.00;;;;340200;28;91083;-89
2023/03/13 00:16:04;;;;;;;;;;;12.50;99.90;12.80;99466.00;;;;344732;28;82572;-90
2023/03/13 00:16:16;;;;;;;;;;;12.50;99.90;12.80;99470.00;;;;344378;28;91155;-89
2023/03/13 00:16:28;;;;;;;;;;;12.50;99.90;12.80;99466.00;;;;340704;28;83477;-89
2023/03/13 00:16:40;;;;;;;;;;;12.50;99.90;12.70;99468.00;;;;344242;28;91279;-89
2023/03/13 00:16:52;;;;;;;;;;;12.50;99.90;12.70;99468.00;;;;340806;28;83600;-89
2023/03/13 00:17:04;;;;;;;;;;;12.50;99.90;12.60;99473.00;;;;342662;28;91645;-89
2023/03/13 00:17:16;;;;;;;;;;;12.50;99.90;12.70;99467.00;;;;343349;28;83432;-89
2023/03/13 00:17:28;;;;;;;;;;;12.50;99.90;12.70;99469.00;;;;340022;28;92463;-89
2023/03/13 00:17:39;;;;;;;;;;;12.50;99.90;12.70;99468.00;;;;343321;28;82553;-90
2023/03/13 00:17:51;;;;;;;;;;;12.50;99.90;12.60;99461.00;;;;341703;28;91217;-89
2023/03/13 00:18:04;;;;;;;;;;;12.50;99.90;12.60;99463.00;;;;342652;28;83493;-89
2023/03/13 00:18:16;;;;;;;;;;;12.50;99.90;12.60;99461.00;;;;343899;28;90082;-90
2023/03/13 00:18:28;;;;;;;;;;;12.40;99.90;12.60;99462.00;;;;341833;28;82398;-89
2023/03/13 00:18:46;;;;;;;;;;;12.40;99.90;12.60;99464.00;;;;341294;28;91966;-89
2023/03/13 00:18:58;;;;;;;;;;;12.40;99.90;12.60;99457.00;;;;344445;28;83455;-88
2023/03/13 00:19:10;;;;;;;;;;;12.50;99.90;12.60;99455.00;;;;342648;28;90212;-90
2023/03/13 00:19:22;;;;;;;;;;;12.40;99.90;12.60;99457.00;;;;340330;28;82488;-91
2023/03/13 00:19:34;;;;;;;;;;;12.40;99.90;12.60;99457.00;;;;340843;28;91593;-89
2023/03/13 00:19:45;;;;;;;;;;;12.40;99.90;12.60;99460.00;;;;342943;28;83407;-89
2023/03/13 00:19:57;;;;;;;;;;;12.50;99.90;12.50;99454.00;;;;341032;28;88094;-89
2023/03/13 00:20:09;;;;;;;;;;;12.40;99.90;12.50;99461.00;;;;340151;28;83502;-89
2023/03/13 00:20:21;;;;;;;;;;;12.40;99.90;12.50;99456.00;;;;342441;28;92400;-90
2023/03/13 00:20:33;;;;;;;;;;;12.40;99.90;12.60;99456.00;;;;344184;28;82373;-89
2023/03/13 00:20:47;;;;;;;;;;;12.40;99.90;12.60;99456.00;;;;342426;28;91363;-89
2023/03/13 00:21:00;;;;;;;;;;;12.40;99.90;12.50;99455.00;;;;342765;28;83373;-90
2023/03/13 00:21:11;;;;;;;;;;;12.40;99.90;12.50;99451.00;;;;340850;28;89847;-90
2023/03/13 00:21:25;;;;;;;;;;;12.40;99.90;12.60;99458.00;;;;341940;28;82512;-89
2023/03/13 00:21:37;;;;;;;;;;;12.40;99.90;12.50;99458.00;;;;341517;28;90853;-89
2023/03/13 00:21:48;;;;;;;;;;;12.40;99.90;12.50;99455.00;;;;343321;28;82497;-89
2023/03/13 00:22:00;;;;;;;;;;;12.40;99.90;12.50;99453.00;;;;338759;28;91284;-89
2023/03/13 00:22:12;;;;;;;;;;;12.40;99.90;12.50;99453.00;;;;340750;28;83341;-89
2023/03/13 00:22:24;;;;;;;;;;;12.40;99.90;12.50;99448.00;;;;342907;28;91362;-89
2023/03/13 00:22:35;;;;;;;;;;;12.40;99.90;12.50;99446.00;;;;340608;28;82489;-89
2023/03/13 00:22:47;;;;;;;;;;;12.40;99.90;12.50;99440.00;;;;342748;28;90275;-89
2023/03/13 00:22:59;;;;;;;;;;;12.40;99.90;12.50;99448.00;;;;340445;28;83412;-89
2023/03/13 00:23:11;;;;;;;;;;;12.40;99.90;12.60;99452.00;;;;341413;28;91484;-89
2023/03/13 00:23:22;;;;;;;;;;;12.40;99.90;12.60;99451.00;;;;343152;28;82668;-90
2023/03/13 00:23:35;;;;;;;;;;;12.40;99.90;12.50;99453.00;;;;342712;28;92612;-90
2023/03/13 00:23:47;;;;;;;;;;;12.30;99.90;12.50;99456.00;;;;343291;28;83277;-89
2023/03/13 00:23:59;;;;;;;;;;;12.40;99.90;12.50;99444.00;;;;341475;28;91531;-90
2023/03/13 00:24:11;;;;;;;;;;;12.40;99.90;12.50;99446.00;;;;340622;28;82335;-89
2023/03/13 00:24:23;;;;;;;;;;;12.30;99.90;12.50;99445.00;;;;340199;28;91649;-89
2023/03/13 00:24:34;;;;;;;;;;;12.30;99.90;12.40;99443.00;;;;341945;28;82594;-90
2023/03/13 00:24:46;;;;;;;;;;;12.30;99.90;12.50;99446.00;;;;341481;28;91184;-89
2023/03/13 00:24:58;;;;;;;;;;;12.30;99.90;12.40;99445.00;;;;341907;28;83421;-89
2023/03/13 00:25:10;;;;;;;;;;;12.30;99.90;12.40;99442.00;;;;338864;28;92206;-89
2023/03/13 00:25:21;;;;;;;;;;;12.40;99.90;12.40;99445.00;;;;343263;28;82364;-89
2023/03/13 00:25:33;;;;;;;;;;;12.30;99.90;12.40;99438.00;;;;341412;28;92805;-89
2023/03/13 00:25:45;;;;;;;;;;;12.30;99.90;12.40;99444.00;;;;340557;28;82501;-89
2023/03/13 00:25:58;;;;;;;;;;;12.30;99.90;12.50;99448.00;;;;342769;28;91438;-89
2023/03/13 00:26:11;;;;;;;;;;;12.30;99.90;12.50;99446.00;;;;340412;28;83595;-89
2023/03/13 00:26:24;;;;;;;;;;;12.30;99.90;12.50;99449.00;;;;338865;28;90675;-89
2023/03/13 00:26:36;;;;;;;;;;;12.30;99.90;12.50;99442.00;;;;343151;28;83231;-89
2023/03/13 00:26:48;;;;;;;;;;;12.30;99.90;12.50;99445.00;;;;341702;28;90552;-89
2023/03/13 00:27:02;;;;;;;;;;;12.30;99.90;12.50;99443.00;;;;343408;28;83069;-89
2023/03/13 00:27:13;;;;;;;;;;;12.30;99.90;12.60;99441.00;;;;341603;28;92044;-90
2023/03/13 00:27:25;;;;;;;;;;;12.30;99.90;12.50;99446.00;;;;340526;28;83351;-89
2023/03/13 00:27:37;;;;;;;;;;;12.30;99.90;12.50;99449.00;;;;341543;28;91585;-89
2023/03/13 00:27:49;;;;;;;;;;;12.30;99.90;12.60;99439.00;;;;343416;28;83367;-89
2023/03/13 00:28:01;;;;;;;;;;;12.30;99.90;12.60;99437.00;;;;341720;28;91207;-88
2023/03/13 00:28:13;;;;;;;;;;;12.30;99.90;12.60;99449.00;;;;340889;28;83475;-89
2023/03/13 00:28:26;;;;;;;;;;;12.30;99.90;12.50;99447.00;;;;340403;28;91388;-89
2023/03/13 00:28:39;;;;;;;;;;;12.30;99.90;12.50;99435.00;;;;340627;28;83293;-88
2023/03/13 00:28:51;;;;;;;;;;;12.30;99.90;12.60;99453.00;;;;341567;28;91262;-89
2023/03/13 00:29:03;;;;;;;;;;;12.30;99.90;12.60;99439.00;;;;342037;28;82493;-89
2023/03/13 00:29:15;;;;;;;;;;;12.30;99.90;12.60;99446.00;;;;340472;28;90561;-89
2023/03/13 00:29:28;;;;;;;;;;;12.30;99.90;12.60;99443.00;;;;340747;28;83495;-89
2023/03/13 00:29:40;;;;;;;;;;;12.30;99.90;12.60;99442.00;;;;340020;28;91606;-88
2023/03/13 00:29:52;;;;;;;;;;;12.30;99.90;12.60;99434.00;;;;340461;28;83248;-89
2023/03/13 00:30:04;;;;;;;;;;;12.30;99.90;12.60;99449.00;;;;339941;28;91923;-88
2023/03/13 00:30:16;;;;;;;;;;;12.30;99.90;12.60;99448.00;;;;340756;28;82494;-89
2023/03/13 00:30:28;;;;;;;;;;;12.30;99.90;12.60;99448.00;;;;338932;28;91600;-89
2023/03/13 00:30:40;;;;;;;;;;;12.30;99.90;12.70;99449.00;;;;338075;28;82462;-89
2023/03/13 00:31:09;;;;;;;;;;;12.30;99.90;12.70;99444.00;;;;339009;28;91542;-89
2023/03/13 00:31:28;;;;;;;;;;;12.30;99.90;12.70;99438.00;;;;340622;28;83320;-89
2023/03/13 00:31:40;;;;;;;;;;;12.40;99.90;12.70;99434.00;;;;340318;28;89108;-89
2023/03/13 00:31:52;;;;;;;;;;;12.30;99.90;12.80;99429.00;;;;339417;28;82511;-89
2023/03/13 00:32:04;;;;;;;;;;;12.30;99.90;12.70;99431.00;;;;339909;28;92413;-90
2023/03/13 00:32:16;;;;;;;;;;;12.30;99.90;12.80;99435.00;;;;339322;28;82555;-90
2023/03/13 00:32:28;;;;;;;;;;;12.30;99.90;12.90;99431.00;;;;340135;28;91317;-89
2023/03/13 00:32:41;;;;;;;;;;;12.40;99.90;13.00;99429.00;;;;343039;28;83567;-89
2023/03/13 00:32:53;;;;;;;;;;;12.40;99.90;12.90;99428.00;;;;340172;28;91689;-89
2023/03/13 00:33:05;;;;;;;;;;;12.40;99.90;13.00;99433.00;;;;339324;28;83286;-89
2023/03/13 00:33:16;;;;;;;;;;;12.40;99.90;13.00;99425.00;;;;341535;28;91391;-89
2023/03/13 00:33:28;;;;;;;;;;;12.40;99.90;13.00;99419.00;;;;343279;28;83543;-88
2023/03/13 00:33:41;;;;;;;;;;;12.40;99.90;12.90;99423.00;;;;340213;28;91928;-89
2023/03/13 00:34:00;;;;;;;;;;;12.40;99.90;12.80;99423.00;;;;344659;28;83384;-89
2023/03/13 00:34:11;;;;;;;;;;;12.40;99.90;12.70;99427.00;;;;340136;28;92392;-89
2023/03/13 00:34:26;;;;;;;;;;;12.50;99.90;12.60;99423.00;;;;342018;28;82484;-89
2023/03/13 00:34:38;;;;;;;;;;;12.40;99.90;12.50;99425.00;;;;342776;28;91921;-89
2023/03/13 00:34:49;;;;;;;;;;;12.40;99.90;12.60;99427.00;;;;337574;28;83641;-89
2023/03/13 00:35:04;;;;;;;;;;;12.40;99.90;12.70;99431.00;;;;341625;28;88777;-89
2023/03/13 00:35:16;;;;;;;;;;;12.40;99.90;12.60;99424.00;;;;343312;28;83527;-89
2023/03/13 00:35:27;;;;;;;;;;;12.40;99.90;12.70;99430.00;;;;342809;28;92059;-89
2023/03/13 00:35:39;;;;;;;;;;;12.40;99.90;12.70;99431.00;;;;340692;28;83253;-89
2023/03/13 00:35:51;;;;;;;;;;;12.40;99.90;12.70;99429.00;;;;338885;28;91108;-89
2023/03/13 00:36:07;;;;;;;;;;;12.40;99.90;12.60;99438.00;;;;339311;28;82369;-89
2023/03/13 00:36:23;;;;;;;;;;;12.40;99.90;12.60;99426.00;;;;338760;28;93243;-89
2023/03/13 00:36:35;;;;;;;;;;;12.40;99.90;12.60;99429.00;;;;341877;28;83521;-89
2023/03/13 00:36:47;;;;;;;;;;;12.40;99.90;12.60;99434.00;;;;341286;28;91979;-89
2023/03/13 00:36:59;;;;;;;;;;;12.40;99.90;12.60;99431.00;;;;341859;28;83159;-90
2023/03/13 00:37:11;;;;;;;;;;;12.40;99.90;12.50;99433.00;;;;342953;28;90472;-89
2023/03/13 00:37:23;;;;;;;;;;;12.30;99.90;12.50;99430.00;;;;339245;28;82634;-89
2023/03/13 00:37:34;;;;;;;;;;;12.40;99.90;12.50;99433.00;;;;341433;28;90886;-90
2023/03/13 00:37:46;;;;;;;;;;;12.30;99.90;12.50;99439.00;;;;342964;28;83441;-89
2023/03/13 00:37:58;;;;;;;;;;;12.40;99.90;12.50;99435.00;;;;341480;28;90583;-89
2023/03/13 00:38:10;;;;;;;;;;;12.30;99.90;12.60;99431.00;;;;341977;28;82353;-89
2023/03/13 00:38:21;;;;;;;;;;;12.30;99.90;12.70;99433.00;;;;340108;28;92746;-89
2023/03/13 00:38:33;;;;;;;;;;;12.30;99.90;12.60;99422.00;;;;337944;28;83465;-89
2023/03/13 00:38:45;;;;;;;;;;;12.40;99.90;12.60;99435.00;;;;338836;28;92018;-89
2023/03/13 00:38:57;;;;;;;;;;;12.40;99.90;12.70;99435.00;;;;339282;28;83470;-89
2023/03/13 00:39:09;;;;;;;;;;;12.40;99.90;12.60;99428.00;;;;342975;28;91417;-89
2023/03/13 00:39:21;;;;;;;;;;;12.40;99.90;12.60;99440.00;;;;339243;28;82438;-89
2023/03/13 00:39:33;;;;;;;;;;;12.30;99.90;12.60;99426.00;;;;340271;28;90204;-89
2023/03/13 00:39:44;;;;;;;;;;;12.40;99.90;12.60;99430.00;;;;339354;28;82499;-89
2023/03/13 00:39:56;;;;;;;;;;;12.40;99.90;12.50;99428.00;;;;340131;28;91396;-89
2023/03/13 00:40:08;;;;;;;;;;;12.30;99.90;12.50;99427.00;;;;343498;28;83487;-89
2023/03/13 00:40:20;;;;;;;;;;;12.30;99.90;12.50;99434.00;;;;340235;28;91364;-89
2023/03/13 00:40:32;;;;;;;;;;;12.30;99.90;12.50;99437.00;;;;343408;28;83572;-88
2023/03/13 00:40:44;;;;;;;;;;;12.30;99.90;12.40;99426.00;;;;341396;28;92032;-89
2023/03/13 00:41:03;;;;;;;;;;;12.30;99.90;12.40;99427.00;;;;341975;28;82600;-89
2023/03/13 00:41:16;;;;;;;;;;;12.30;99.90;12.50;99425.00;;;;341258;28;91416;-88
2023/03/13 00:41:30;;;;;;;;;;;12.30;99.90;12.60;99427.00;;;;341936;28;83437;-89
2023/03/13 00:41:42;;;;;;;;;;;12.30;99.90;12.60;99427.00;;;;341612;28;88827;-89
2023/03/13 00:41:54;;;;;;;;;;;12.30;99.90;12.60;99428.00;;;;343072;28;83277;-89
2023/03/13 00:42:06;;;;;;;;;;;12.30;99.90;12.60;99423.00;;;;341447;28;91533;-90
2023/03/13 00:42:18;;;;;;;;;;;12.30;99.90;12.60;99415.00;;;;341917;28;83382;-90
2023/03/13 00:42:29;;;;;;;;;;;12.30;99.90;12.70;99421.00;;;;341490;28;92206;-89
2023/03/13 00:42:41;;;;;;;;;;;12.30;99.90;12.70;99429.00;;;;344575;28;83390;-89
2023/03/13 00:42:53;;;;;;;;;;;12.30;99.90;12.70;99419.00;;;;341495;28;91995;-89
2023/03/13 00:43:05;;;;;;;;;;;12.30;99.90;12.70;99418.00;;;;343376;28;82490;-89
2023/03/13 00:43:17;;;;;;;;;;;12.30;99.90;12.60;99424.00;;;;338842;28;91076;-89
2023/03/13 00:43:28;;;;;;;;;;;12.30;99.90;12.60;99418.00;;;;340645;28;83512;-89
2023/03/13 00:43:41;;;;;;;;;;;12.30;99.90;12.70;99425.00;;;;341415;28;91142;-89
2023/03/13 00:43:53;;;;;;;;;;;12.40;99.90;12.70;99423.00;;;;343296;28;83463;-89
2023/03/13 00:44:05;;;;;;;;;;;12.30;99.90;12.70;99418.00;;;;341383;28;91514;-89
2023/03/13 00:44:16;;;;;;;;;;;12.30;99.90;12.70;99423.00;;;;339166;28;83349;-89
2023/03/13 00:44:29;;;;;;;;;;;12.30;99.90;12.60;99421.00;;;;341285;28;93302;-89
2023/03/13 00:44:40;;;;;;;;;;;12.40;99.90;12.60;99421.00;;;;340818;28;83372;-89
2023/03/13 00:44:52;;;;;;;;;;;12.30;99.90;12.60;99419.00;;;;340357;28;90488;-90
2023/03/13 00:45:04;;;;;;;;;;;12.30;99.90;12.50;99433.00;;;;343479;28;82503;-89
2023/03/13 00:45:16;;;;;;;;;;;12.30;99.90;12.50;99427.00;;;;339109;28;90438;-89
2023/03/13 00:45:28;;;;;;;;;;;12.30;99.90;12.50;99416.00;;;;342172;28;83579;-89
2023/03/13 00:45:40;;;;;;;;;;;12.30;99.90;12.50;99418.00;;;;343124;28;91320;-89
2023/03/13 00:45:52;;;;;;;;;;;12.30;99.90;12.40;99426.00;;;;340910;28;82516;-89
2023/03/13 00:46:04;;;;;;;;;;;12.30;99.90;12.40;99423.00;;;;340531;28;89201;-89
2023/03/13 00:46:17;;;;;;;;;;;12.30;99.90;12.50;99422.00;;;;340669;28;83462;-89
2023/03/13 00:46:29;;;;;;;;;;;12.30;99.90;12.60;99421.00;;;;340048;28;92279;-90
2023/03/13 00:46:41;;;;;;;;;;;12.30;99.90;12.70;99423.00;;;;343191;28;83426;-89
2023/03/13 00:46:53;;;;;;;;;;;12.30;99.90;12.70;99429.00;;;;342818;28;91108;-89
2023/03/13 00:47:05;;;;;;;;;;;12.30;99.90;12.80;99427.00;;;;342032;28;83340;-90
2023/03/13 00:47:17;;;;;;;;;;;12.30;99.90;12.80;99420.00;;;;342864;28;90277;-90
2023/03/13 00:47:29;;;;;;;;;;;12.30;99.90;12.80;99416.00;;;;340253;28;83597;-89
2023/03/13 00:47:41;;;;;;;;;;;12.30;99.90;12.80;99425.00;;;;339937;28;90306;-89
2023/03/13 00:47:53;;;;;;;;;;;12.40;99.90;12.80;99416.00;;;;345987;28;83504;-89
2023/03/13 00:48:04;;;;;;;;;;;12.30;99.90;12.70;99416.00;;;;341563;28;91516;-89
2023/03/13 00:48:16;;;;;;;;;;;12.30;99.90;12.70;99414.00;;;;341967;28;83455;-89
2023/03/13 00:48:28;;;;;;;;;;;12.40;99.90;12.70;99417.00;;;;341475;28;91618;-89
2023/03/13 00:48:40;;;;;;;;;;;12.30;99.90;12.60;99413.00;;;;346061;28;83337;-90
2023/03/13 00:48:52;;;;;;;;;;;12.40;99.90;12.70;99422.00;;;;341596;28;90925;-89
2023/03/13 00:49:04;;;;;;;;;;;12.30;99.90;12.70;99417.00;;;;340669;28;83538;-88
2023/03/13 00:49:16;;;;;;;;;;;12.30;99.90;12.70;99417.00;;;;341719;28;91252;-89
2023/03/13 00:49:27;;;;;;;;;;;12.40;99.90;12.60;99418.00;;;;341936;28;82573;-89
2023/03/13 00:49:39;;;;;;;;;;;12.30;99.90;12.60;99407.00;;;;344639;28;88977;-89
2023/03/13 00:49:51;;;;;;;;;;;12.30;99.90;12.50;99414.00;;;;342285;28;83390;-89
2023/03/13 00:50:03;;;;;;;;;;;12.40;99.90;12.50;99411.00;;;;341127;28;91395;-90
2023/03/13 00:50:15;;;;;;;;;;;12.30;99.90;12.50;99410.00;;;;339462;28;83332;-88
2023/03/13 00:50:26;;;;;;;;;;;12.30;99.90;12.50;99417.00;;;;341420;28;93167;-89
2023/03/13 00:50:38;;;;;;;;;;;12.30;99.90;12.50;99413.00;;;;341825;28;83437;-89
2023/03/13 00:50:50;;;;;;;;;;;12.30;99.90;12.50;99421.00;;;;341572;28;91124;-89
2023/03/13 00:51:02;;;;;;;;;;;12.30;99.90;12.50;99417.00;;;;341897;28;83398;-89
2023/03/13 00:51:14;;;;;;;;;;;12.30;99.90;12.50;99416.00;;;;340210;28;90366;-89
2023/03/13 00:51:26;;;;;;;;;;;12.30;99.90;12.40;99412.00;;;;340429;28;83543;-88
2023/03/13 00:51:38;;;;;;;;;;;12.30;99.90;12.40;99414.00;;;;340129;28;91265;-89
2023/03/13 00:51:50;;;;;;;;;;;12.30;99.90;12.40;99418.00;;;;340555;28;83521;-89
2023/03/13 00:52:02;;;;;;;;;;;12.30;99.90;12.40;99416.00;;;;339994;28;91525;-90
2023/03/13 00:52:14;;;;;;;;;;;12.30;99.90;12.40;99410.00;;;;339329;28;83438;-89
2023/03/13 00:52:27;;;;;;;;;;;12.30;99.90;12.40;99422.00;;;;340082;28;89700;-89
2023/03/13 00:52:38;;;;;;;;;;;12.20;99.90;12.40;99411.00;;;;340870;28;82463;-89
2023/03/13 00:52:50;;;;;;;;;;;12.30;99.90;12.40;99413.00;;;;340453;28;89902;-89
2023/03/13 00:53:02;;;;;;;;;;;12.20;99.90;12.50;99411.00;;;;340871;28;83409;-89
2023/03/13 00:53:14;;;;;;;;;;;12.30;99.90;12.50;99405.00;;;;341863;28;91589;-89
2023/03/13 00:53:26;;;;;;;;;;;12.30;99.90;12.40;99418.00;;;;340828;28;83062;-89
2023/03/13 00:53:37;;;;;;;;;;;12.20;99.90;12.40;99409.00;;;;341717;28;91296;-89
2023/03/13 00:53:49;;;;;;;;;;;12.20;99.90;12.30;99421.00;;;;343658;28;83251;-89
2023/03/13 00:54:02;;;;;;;;;;;12.20;99.90;12.30;99416.00;;;;340426;28;90904;-89
2023/03/13 00:54:14;;;;;;;;;;;12.20;99.90;12.30;99417.00;;;;341018;28;83337;-89
2023/03/13 00:54:26;;;;;;;;;;;12.20;99.90;12.40;99422.00;;;;341875;28;90781;-89
2023/03/13 00:54:38;;;;;;;;;;;12.20;99.90;12.40;99418.00;;;;342536;28;82599;-89
2023/03/13 00:54:50;;;;;;;;;;;12.20;99.90;12.50;99415.00;;;;341717;28;91441;-89
2023/03/13 00:55:03;;;;;;;;;;;12.20;99.90;12.40;99426.00;;;;340797;28;83337;-89
2023/03/13 00:55:14;;;;;;;;;;;12.20;99.90;12.40;99420.00;;;;342183;28;89498;-89
2023/03/13 00:55:26;;;;;;;;;;;12.20;99.90;12.40;99424.00;;;;340991;28;83433;-88
2023/03/13 00:55:38;;;;;;;;;;;12.20;99.90;12.30;99418.00;;;;342890;28;90049;-88
2023/03/13 00:55:56;;;;;;;;;;;12.20;99.90;12.30;99427.00;;;;340923;28;82674;-89
2023/03/13 00:56:09;;;;;;;;;;;12.10;99.90;12.30;99424.00;;;;340131;28;90770;-89
2023/03/13 00:56:21;;;;;;;;;;;12.10;99.90;12.30;99415.00;;;;342178;28;82571;-89
2023/03/13 00:56:33;;;;;;;;;;;12.20;99.90;12.30;99423.00;;;;341623;28;91339;-89
2023/03/13 00:56:45;;;;;;;;;;;12.10;99.90;12.30;99422.00;;;;343597;28;83422;-89
2023/03/13 00:56:57;;;;;;;;;;;12.10;99.90;12.30;99428.00;;;;340250;28;91685;-89
2023/03/13 00:57:08;;;;;;;;;;;12.10;99.90;12.30;99429.00;;;;342126;28;83505;-89
2023/03/13 00:57:20;;;;;;;;;;;12.10;99.90;12.30;99424.00;;;;341951;28;90535;-88
2023/03/13 00:57:36;;;;;;;;;;;12.10;99.90;12.30;99423.00;;;;341073;28;82490;-88
2023/03/13 00:57:47;;;;;;;;;;;12.10;99.90;12.30;99427.00;;;;341792;28;91550;-89
2023/03/13 00:57:59;;;;;;;;;;;12.10;99.90;12.30;99424.00;;;;339758;28;83517;-89
2023/03/13 00:58:11;;;;;;;;;;;12.10;99.90;12.30;99426.00;;;;341872;28;90711;-89
2023/03/13 00:58:23;;;;;;;;;;;12.10;99.90;12.30;99427.00;;;;339648;28;83428;-88
2023/03/13 00:58:37;;;;;;;;;;;12.10;99.90;12.40;99439.00;;;;341963;28;92058;-89
2023/03/13 00:58:49;;;;;;;;;;;12.10;99.90;12.40;99423.00;;;;340982;28;83476;-88
2023/03/13 00:59:01;;;;;;;;;;;12.10;99.90;12.40;99426.00;;;;341966;28;91283;-89
2023/03/13 00:59:13;;;;;;;;;;;12.10;99.90;12.40;99428.00;;;;343986;28;82523;-91
2023/03/13 00:59:25;;;;;;;;;;;12.10;99.90;12.40;99423.00;;;;340535;28;91305;-88
2023/03/13 00:59:37;;;;;;;;;;;12.10;99.90;12.40;99427.00;;;;339813;28;83546;-89
2023/03/13 00:59:48;;;;;;;;;;;12.10;99.90;12.40;99424.00;;;;339102;28;90989;-89
2023/03/13 01:00:00;;;;;;;;;;;12.10;99.90;12.40;99419.00;;;;343630;28;83463;-90
2023/03/13 01:00:15;;;;;;;;;;;12.10;99.90;12.40;99429.00;;;;340631;28;91254;-90
2023/03/13 01:00:26;;;;;;;;;;;12.10;99.90;12.40;99434.00;;;;342518;28;82542;-88
2023/03/13 01:00:38;;;;;;;;;;;12.10;99.90;12.30;99428.00;;;;339148;28;93148;-87
2023/03/13 01:00:50;;;;;;;;;;;12.10;99.90;12.40;99432.00;;;;341185;28;83514;-89
2023/03/13 01:01:09;;;;;;;;;;;12.10;99.90;12.40;99426.00;;;;340821;28;90417;-90